sensor_id;sensor_type;location;lat;lon;timestamp;temperature;humidity
5796;DHT22;2924;51.458;7.046;2022-12-08T00:00:45;3.00;99.90
5796;DHT22;2924;51.458;7.046;2022-12-08T00:03:11;2.90;99.90
5796;DHT22;2924;51.458;7.046;2022-12-08T00:05:37;2.90;99.90
5796;DHT22;2924;51.458;7.046;2022-12-08T00:08:22;3.00;99.90
5796;DHT22;2924;51.458;7.046;2022-12-08T00:11:14;3.00;99.90
5796;DHT22;2924;51.458;7.046;2022-12-08T00:13:40;3.00;99.90
5796;DHT22;2924;51.458;7.046;2022-12-08T00:16:06;3.00;99.90
5796;DHT22;2924;51.458;7.046;2022-12-08T00:18:32;3.00;99.90
5796;DHT22;2924;51.458;7.046;2022-12-08T00:20:59;3.00;99.90
5796;DHT22;2924;51.458;7.046;2022-12-08T00:23:25;2.90;99.90
5796;DHT22;2924;51.458;7.046;2022-12-08T00:25:51;2.90;99.90
5796;DHT22;2924;51.458;7.046;2022-12-08T00:28:17;2.90;99.90
5796;DHT22;2924;51.458;7.046;2022-12-08T00:30:43;2.90;99.90
5796;DHT22;2924;51.458;7.046;2022-12-08T00:33:09;2.80;99.90
5796;DHT22;2924;51.458;7.046;2022-12-08T00:35:35;2.90;99.90
5796;DHT22;2924;51.458;7.046;2022-12-08T00:38:01;2.90;99.90
5796;DHT22;2924;51.458;7.046;2022-12-08T00:40:27;2.90;99.90
5796;DHT22;2924;51.458;7.046;2022-12-08T00:42:53;2.90;99.90
5796;DHT22;2924;51.458;7.046;2022-12-08T00:45:18;2.90;99.90
5796;DHT22;2924;51.458;7.046;2022-12-08T00:47:44;2.90;99.90
5796;DHT22;2924;51.458;7.046;2022-12-08T00:50:10;2.90;99.90
5796;DHT22;2924;51.458;7.046;2022-12-08T00:52:36;2.90;99.90
5796;DHT22;2924;51.458;7.046;2022-12-08T00:55:03;2.90;99.90
5796;DHT22;2924;51.458;7.046;2022-12-08T00:57:29;2.90;99.90
5796;DHT22;2924;51.458;7.046;2022-12-08T00:59:54;2.90;99.90
5796;DHT22;2924;51.458;7.046;2022-12-08T01:02:20;2.90;99.90
5796;DHT22;2924;51.458;7.046;2022-12-08T01:04:46;2.90;99.90
5796;DHT22;2924;51.458;7.046;2022-12-08T01:07:11;2.80;99.90
5796;DHT22;2924;51.458;7.046;2022-12-08T01:09:37;2.80;99.90
5796;DHT22;2924;51.458;7.046;2022-12-08T01:12:03;2.80;99.90
5796;DHT22;2924;51.458;7.046;2022-12-08T01:14:29;2.80;99.90
5796;DHT22;2924;51.458;7.046;2022-12-08T01:16:55;2.70;99.90
5796;DHT22;2924;51.458;7.046;2022-12-08T01:19:20;2.70;99.90
5796;DHT22;2924;51.458;7.046;2022-12-08T01:21:46;2.70;99.90
5796;DHT22;2924;51.458;7.046;2022-12-08T01:24:15;2.70;99.90
5796;DHT22;2924;51.458;7.046;2022-12-08T01:26:41;2.60;99.90
5796;DHT22;2924;51.458;7.046;2022-12-08T01:29:07;2.60;99.90
5796;DHT22;2924;51.458;7.046;2022-12-08T01:31:33;2.50;99.90
5796;DHT22;2924;51.458;7.046;2022-12-08T01:33:58;2.50;99.90
5796;DHT22;2924;51.458;7.046;2022-12-08T01:36:29;2.40;99.90
5796;DHT22;2924;51.458;7.046;2022-12-08T01:38:58;2.40;99.90
5796;DHT22;2924;51.458;7.046;2022-12-08T01:41:27;2.40;99.90
5796;DHT22;2924;51.458;7.046;2022-12-08T01:46:40;2.40;99.90
5796;DHT22;2924;51.458;7.046;2022-12-08T01:49:12;2.50;99.90
5796;DHT22;2924;51.458;7.046;2022-12-08T01:54:44;2.60;99.90
5796;DHT22;2924;51.458;7.046;2022-12-08T01:57:34;2.60;99.90
5796;DHT22;2924;51.458;7.046;2022-12-08T02:00:08;2.70;99.90
5796;DHT22;2924;51.458;7.046;2022-12-08T02:05:11;2.90;99.90
5796;DHT22;2924;51.458;7.046;2022-12-08T02:07:36;2.80;99.90
5796;DHT22;2924;51.458;7.046;2022-12-08T02:10:03;2.90;99.90
5796;DHT22;2924;51.458;7.046;2022-12-08T02:12:29;2.90;99.90
5796;DHT22;2924;51.458;7.046;2022-12-08T02:14:54;2.90;99.90
5796;DHT22;2924;51.458;7.046;2022-12-08T02:20:17;2.90;99.90
5796;DHT22;2924;51.458;7.046;2022-12-08T02:26:11;2.90;99.90
5796;DHT22;2924;51.458;7.046;2022-12-08T02:31:25;2.90;99.90
5796;DHT22;2924;51.458;7.046;2022-12-08T02:39:52;2.80;99.90
5796;DHT22;2924;51.458;7.046;2022-12-08T02:42:51;2.90;99.90
5796;DHT22;2924;51.458;7.046;2022-12-08T02:45:30;2.90;99.90
5796;DHT22;2924;51.458;7.046;2022-12-08T02:47:57;2.90;99.90
5796;DHT22;2924;51.458;7.046;2022-12-08T02:50:23;3.00;99.90
5796;DHT22;2924;51.458;7.046;2022-12-08T02:52:49;3.00;99.90
5796;DHT22;2924;51.458;7.046;2022-12-08T03:00:37;3.00;99.90
5796;DHT22;2924;51.458;7.046;2022-12-08T03:03:27;3.00;99.90
5796;DHT22;2924;51.458;7.046;2022-12-08T03:06:03;3.00;99.90
5796;DHT22;2924;51.458;7.046;2022-12-08T03:11:55;3.10;99.90
5796;DHT22;2924;51.458;7.046;2022-12-08T03:14:23;3.10;99.90
5796;DHT22;2924;51.458;7.046;2022-12-08T03:16:53;3.00;99.90
5796;DHT22;2924;51.458;7.046;2022-12-08T03:19:29;3.10;99.90
5796;DHT22;2924;51.458;7.046;2022-12-08T03:21:58;3.10;99.90
5796;DHT22;2924;51.458;7.046;2022-12-08T03:24:46;3.10;99.90
5796;DHT22;2924;51.458;7.046;2022-12-08T03:27:19;3.10;99.90
5796;DHT22;2924;51.458;7.046;2022-12-08T03:29:47;3.10;99.90
5796;DHT22;2924;51.458;7.046;2022-12-08T03:34:49;3.10;99.90
5796;DHT22;2924;51.458;7.046;2022-12-08T03:37:16;3.10;99.90
5796;DHT22;2924;51.458;7.046;2022-12-08T03:39:42;3.10;99.90
5796;DHT22;2924;51.458;7.046;2022-12-08T03:42:07;3.10;99.90
5796;DHT22;2924;51.458;7.046;2022-12-08T03:44:33;3.10;99.90
5796;DHT22;2924;51.458;7.046;2022-12-08T03:46:59;3.10;99.90
5796;DHT22;2924;51.458;7.046;2022-12-08T03:49:24;3.10;99.90
5796;DHT22;2924;51.458;7.046;2022-12-08T03:51:50;3.10;99.90
5796;DHT22;2924;51.458;7.046;2022-12-08T03:54:16;3.10;99.90
5796;DHT22;2924;51.458;7.046;2022-12-08T03:56:42;3.10;99.90
5796;DHT22;2924;51.458;7.046;2022-12-08T03:59:09;3.10;99.90
5796;DHT22;2924;51.458;7.046;2022-12-08T04:01:35;3.10;99.90
5796;DHT22;2924;51.458;7.046;2022-12-08T04:04:00;3.10;99.90
5796;DHT22;2924;51.458;7.046;2022-12-08T04:06:26;3.10;99.90
5796;DHT22;2924;51.458;7.046;2022-12-08T04:08:52;3.10;99.90
5796;DHT22;2924;51.458;7.046;2022-12-08T04:11:18;3.10;99.90
5796;DHT22;2924;51.458;7.046;2022-12-08T04:13:44;3.10;99.90
5796;DHT22;2924;51.458;7.046;2022-12-08T04:16:19;3.10;99.90
5796;DHT22;2924;51.458;7.046;2022-12-08T04:18:46;3.10;99.90
5796;DHT22;2924;51.458;7.046;2022-12-08T04:21:12;3.00;99.90
5796;DHT22;2924;51.458;7.046;2022-12-08T04:23:38;3.10;99.90
5796;DHT22;2924;51.458;7.046;2022-12-08T04:26:04;3.10;99.90
5796;DHT22;2924;51.458;7.046;2022-12-08T04:28:30;3.00;99.90
5796;DHT22;2924;51.458;7.046;2022-12-08T04:30:56;3.00;99.90
5796;DHT22;2924;51.458;7.046;2022-12-08T04:33:22;3.00;99.90
5796;DHT22;2924;51.458;7.046;2022-12-08T04:35:47;3.00;99.90
5796;DHT22;2924;51.458;7.046;2022-12-08T04:38:13;3.00;99.90
5796;DHT22;2924;51.458;7.046;2022-12-08T04:40:39;3.10;99.90
5796;DHT22;2924;51.458;7.046;2022-12-08T04:43:05;3.00;99.90
5796;DHT22;2924;51.458;7.046;2022-12-08T04:45:31;3.00;99.90
5796;DHT22;2924;51.458;7.046;2022-12-08T04:47:58;3.00;99.90
5796;DHT22;2924;51.458;7.046;2022-12-08T04:50:24;3.00;99.90
5796;DHT22;2924;51.458;7.046;2022-12-08T04:52:49;3.00;99.90
5796;DHT22;2924;51.458;7.046;2022-12-08T04:55:15;3.00;99.90
5796;DHT22;2924;51.458;7.046;2022-12-08T04:57:41;3.00;99.90
5796;DHT22;2924;51.458;7.046;2022-12-08T05:00:07;2.90;99.90
5796;DHT22;2924;51.458;7.046;2022-12-08T05:02:33;2.90;99.90
5796;DHT22;2924;51.458;7.046;2022-12-08T05:04:58;3.00;99.90
5796;DHT22;2924;51.458;7.046;2022-12-08T05:07:24;3.00;99.90
5796;DHT22;2924;51.458;7.046;2022-12-08T05:09:50;2.90;99.90
5796;DHT22;2924;51.458;7.046;2022-12-08T05:12:15;2.90;99.90
5796;DHT22;2924;51.458;7.046;2022-12-08T05:14:41;2.90;99.90
5796;DHT22;2924;51.458;7.046;2022-12-08T05:17:07;2.90;99.90
5796;DHT22;2924;51.458;7.046;2022-12-08T05:19:32;2.90;99.90
5796;DHT22;2924;51.458;7.046;2022-12-08T05:21:58;2.90;99.90
5796;DHT22;2924;51.458;7.046;2022-12-08T05:24:24;2.90;99.90
5796;DHT22;2924;51.458;7.046;2022-12-08T05:26:49;2.90;99.90
5796;DHT22;2924;51.458;7.046;2022-12-08T05:29:15;2.90;99.90
5796;DHT22;2924;51.458;7.046;2022-12-08T05:31:41;2.90;99.90
5796;DHT22;2924;51.458;7.046;2022-12-08T05:34:06;2.90;99.90
5796;DHT22;2924;51.458;7.046;2022-12-08T05:36:32;2.90;99.90
5796;DHT22;2924;51.458;7.046;2022-12-08T05:38:58;2.90;99.90
5796;DHT22;2924;51.458;7.046;2022-12-08T05:41:24;2.90;99.90
5796;DHT22;2924;51.458;7.046;2022-12-08T05:43:49;2.90;99.90
5796;DHT22;2924;51.458;7.046;2022-12-08T05:46:16;3.00;99.90
5796;DHT22;2924;51.458;7.046;2022-12-08T05:48:41;3.00;99.90
5796;DHT22;2924;51.458;7.046;2022-12-08T05:51:22;3.00;99.90
5796;DHT22;2924;51.458;7.046;2022-12-08T05:53:49;3.00;99.90
5796;DHT22;2924;51.458;7.046;2022-12-08T05:56:15;3.00;99.90
5796;DHT22;2924;51.458;7.046;2022-12-08T05:58:42;3.00;99.90
5796;DHT22;2924;51.458;7.046;2022-12-08T06:01:30;3.00;99.90
5796;DHT22;2924;51.458;7.046;2022-12-08T06:03:57;3.00;99.90
5796;DHT22;2924;51.458;7.046;2022-12-08T06:06:23;3.00;99.90
5796;DHT22;2924;51.458;7.046;2022-12-08T06:08:49;3.00;99.90
5796;DHT22;2924;51.458;7.046;2022-12-08T06:11:29;3.00;99.90
5796;DHT22;2924;51.458;7.046;2022-12-08T06:13:56;3.00;99.90
5796;DHT22;2924;51.458;7.046;2022-12-08T06:16:23;3.00;99.90
5796;DHT22;2924;51.458;7.046;2022-12-08T06:18:49;3.00;99.90
5796;DHT22;2924;51.458;7.046;2022-12-08T06:21:15;2.90;99.90
5796;DHT22;2924;51.458;7.046;2022-12-08T06:23:41;2.90;99.90
5796;DHT22;2924;51.458;7.046;2022-12-08T06:26:13;2.90;99.90
5796;DHT22;2924;51.458;7.046;2022-12-08T06:28:40;2.90;99.90
5796;DHT22;2924;51.458;7.046;2022-12-08T06:31:12;2.90;99.90
5796;DHT22;2924;51.458;7.046;2022-12-08T06:33:38;2.80;99.90
5796;DHT22;2924;51.458;7.046;2022-12-08T06:36:05;2.80;99.90
5796;DHT22;2924;51.458;7.046;2022-12-08T06:38:31;2.80;99.90
5796;DHT22;2924;51.458;7.046;2022-12-08T06:40:57;2.80;99.90
5796;DHT22;2924;51.458;7.046;2022-12-08T06:43:24;2.90;99.90
5796;DHT22;2924;51.458;7.046;2022-12-08T06:45:50;2.90;99.90
5796;DHT22;2924;51.458;7.046;2022-12-08T06:48:16;2.90;99.90
5796;DHT22;2924;51.458;7.046;2022-12-08T06:50:42;2.90;99.90
5796;DHT22;2924;51.458;7.046;2022-12-08T06:53:11;2.90;99.90
5796;DHT22;2924;51.458;7.046;2022-12-08T06:55:41;2.90;99.90
5796;DHT22;2924;51.458;7.046;2022-12-08T06:58:07;2.90;99.90
5796;DHT22;2924;51.458;7.046;2022-12-08T07:00:32;2.90;99.90
5796;DHT22;2924;51.458;7.046;2022-12-08T07:02:58;2.90;99.90
5796;DHT22;2924;51.458;7.046;2022-12-08T07:05:24;2.90;99.90
5796;DHT22;2924;51.458;7.046;2022-12-08T07:07:49;2.90;99.90
5796;DHT22;2924;51.458;7.046;2022-12-08T07:10:15;2.90;99.90
5796;DHT22;2924;51.458;7.046;2022-12-08T07:12:40;2.90;99.90
5796;DHT22;2924;51.458;7.046;2022-12-08T07:15:07;2.90;99.90
5796;DHT22;2924;51.458;7.046;2022-12-08T07:17:32;2.90;99.90
5796;DHT22;2924;51.458;7.046;2022-12-08T07:19:58;2.90;99.90
5796;DHT22;2924;51.458;7.046;2022-12-08T07:22:24;2.90;99.90
5796;DHT22;2924;51.458;7.046;2022-12-08T07:24:49;2.80;99.90
5796;DHT22;2924;51.458;7.046;2022-12-08T07:27:15;2.80;99.90
5796;DHT22;2924;51.458;7.046;2022-12-08T07:29:41;2.80;99.90
5796;DHT22;2924;51.458;7.046;2022-12-08T07:32:07;2.80;99.90
5796;DHT22;2924;51.458;7.046;2022-12-08T07:34:32;2.80;99.90
5796;DHT22;2924;51.458;7.046;2022-12-08T07:36:58;2.80;99.90
5796;DHT22;2924;51.458;7.046;2022-12-08T07:39:23;2.90;99.90
5796;DHT22;2924;51.458;7.046;2022-12-08T07:41:49;2.80;99.90
5796;DHT22;2924;51.458;7.046;2022-12-08T07:44:15;2.80;99.90
5796;DHT22;2924;51.458;7.046;2022-12-08T07:46:40;2.80;99.90
5796;DHT22;2924;51.458;7.046;2022-12-08T07:49:06;2.80;99.90
5796;DHT22;2924;51.458;7.046;2022-12-08T07:51:32;2.80;99.90
5796;DHT22;2924;51.458;7.046;2022-12-08T07:53:57;2.80;99.90
5796;DHT22;2924;51.458;7.046;2022-12-08T07:56:23;2.80;99.90
5796;DHT22;2924;51.458;7.046;2022-12-08T07:58:49;2.80;99.90
5796;DHT22;2924;51.458;7.046;2022-12-08T08:01:23;2.80;99.90
5796;DHT22;2924;51.458;7.046;2022-12-08T08:03:49;2.70;99.90
5796;DHT22;2924;51.458;7.046;2022-12-08T08:06:15;2.70;99.90
5796;DHT22;2924;51.458;7.046;2022-12-08T08:08:41;2.70;99.90
5796;DHT22;2924;51.458;7.046;2022-12-08T08:11:07;2.70;99.90
5796;DHT22;2924;51.458;7.046;2022-12-08T08:13:32;2.70;99.90
5796;DHT22;2924;51.458;7.046;2022-12-08T08:16:07;2.70;99.90
5796;DHT22;2924;51.458;7.046;2022-12-08T08:18:34;2.70;99.90
5796;DHT22;2924;51.458;7.046;2022-12-08T08:21:00;2.70;99.90
5796;DHT22;2924;51.458;7.046;2022-12-08T08:23:26;2.70;99.90
5796;DHT22;2924;51.458;7.046;2022-12-08T08:25:52;2.60;99.90
5796;DHT22;2924;51.458;7.046;2022-12-08T08:28:18;2.60;99.90
5796;DHT22;2924;51.458;7.046;2022-12-08T08:30:47;2.60;99.90
5796;DHT22;2924;51.458;7.046;2022-12-08T08:33:13;2.50;99.90
5796;DHT22;2924;51.458;7.046;2022-12-08T08:35:39;2.60;99.90
5796;DHT22;2924;51.458;7.046;2022-12-08T08:38:05;2.50;99.90
5796;DHT22;2924;51.458;7.046;2022-12-08T08:40:30;2.60;99.90
5796;DHT22;2924;51.458;7.046;2022-12-08T08:42:59;2.60;99.90
5796;DHT22;2924;51.458;7.046;2022-12-08T08:45:25;2.60;99.90
5796;DHT22;2924;51.458;7.046;2022-12-08T08:47:50;2.60;99.90
5796;DHT22;2924;51.458;7.046;2022-12-08T08:50:16;2.60;99.90
5796;DHT22;2924;51.458;7.046;2022-12-08T08:52:41;2.70;99.90
5796;DHT22;2924;51.458;7.046;2022-12-08T08:55:07;2.70;99.90
5796;DHT22;2924;51.458;7.046;2022-12-08T08:57:33;2.70;99.90
5796;DHT22;2924;51.458;7.046;2022-12-08T08:59:59;2.60;99.90
5796;DHT22;2924;51.458;7.046;2022-12-08T09:02:24;2.70;99.90
5796;DHT22;2924;51.458;7.046;2022-12-08T09:04:50;2.60;99.90
5796;DHT22;2924;51.458;7.046;2022-12-08T09:07:16;2.60;99.90
5796;DHT22;2924;51.458;7.046;2022-12-08T09:09:42;2.60;99.90
5796;DHT22;2924;51.458;7.046;2022-12-08T09:12:08;2.60;99.90
5796;DHT22;2924;51.458;7.046;2022-12-08T09:14:34;2.60;99.90
5796;DHT22;2924;51.458;7.046;2022-12-08T09:17:00;2.60;99.90
5796;DHT22;2924;51.458;7.046;2022-12-08T09:19:25;2.60;99.90
5796;DHT22;2924;51.458;7.046;2022-12-08T09:21:51;2.60;99.90
5796;DHT22;2924;51.458;7.046;2022-12-08T09:24:16;2.80;99.90
5796;DHT22;2924;51.458;7.046;2022-12-08T09:26:43;2.70;99.90
5796;DHT22;2924;51.458;7.046;2022-12-08T09:29:10;2.70;99.90
5796;DHT22;2924;51.458;7.046;2022-12-08T09:31:36;2.70;99.90
5796;DHT22;2924;51.458;7.046;2022-12-08T09:34:02;2.60;99.90
5796;DHT22;2924;51.458;7.046;2022-12-08T09:36:28;2.60;99.90
5796;DHT22;2924;51.458;7.046;2022-12-08T09:38:54;2.60;99.90
5796;DHT22;2924;51.458;7.046;2022-12-08T09:41:33;2.50;99.90
5796;DHT22;2924;51.458;7.046;2022-12-08T09:46:37;2.60;99.90
5796;DHT22;2924;51.458;7.046;2022-12-08T09:49:04;2.70;99.90
5796;DHT22;2924;51.458;7.046;2022-12-08T09:51:38;2.70;99.90
5796;DHT22;2924;51.458;7.046;2022-12-08T09:54:24;2.70;99.90
5796;DHT22;2924;51.458;7.046;2022-12-08T09:56:55;2.70;99.90
5796;DHT22;2924;51.458;7.046;2022-12-08T09:59:30;2.70;99.90
5796;DHT22;2924;51.458;7.046;2022-12-08T10:01:56;2.70;99.90
5796;DHT22;2924;51.458;7.046;2022-12-08T10:07:02;2.70;99.90
5796;DHT22;2924;51.458;7.046;2022-12-08T10:12:38;2.70;99.90
5796;DHT22;2924;51.458;7.046;2022-12-08T10:17:51;2.70;99.90
5796;DHT22;2924;51.458;7.046;2022-12-08T10:20:26;2.70;99.90
5796;DHT22;2924;51.458;7.046;2022-12-08T10:25:51;2.70;99.90
5796;DHT22;2924;51.458;7.046;2022-12-08T10:28:19;2.80;99.90
5796;DHT22;2924;51.458;7.046;2022-12-08T10:30:45;2.80;99.90
5796;DHT22;2924;51.458;7.046;2022-12-08T10:33:15;2.70;99.90
5796;DHT22;2924;51.458;7.046;2022-12-08T10:35:54;2.70;99.90
5796;DHT22;2924;51.458;7.046;2022-12-08T10:43:27;2.70;99.90
5796;DHT22;2924;51.458;7.046;2022-12-08T10:45:53;2.70;99.90
5796;DHT22;2924;51.458;7.046;2022-12-08T10:48:23;2.70;99.90
5796;DHT22;2924;51.458;7.046;2022-12-08T10:50:57;2.70;99.90
5796;DHT22;2924;51.458;7.046;2022-12-08T10:53:29;2.60;99.90
5796;DHT22;2924;51.458;7.046;2022-12-08T10:58:38;2.70;99.90
5796;DHT22;2924;51.458;7.046;2022-12-08T11:01:16;2.70;99.90
5796;DHT22;2924;51.458;7.046;2022-12-08T11:06:29;2.60;99.90
5796;DHT22;2924;51.458;7.046;2022-12-08T11:14:17;2.80;99.90
5796;DHT22;2924;51.458;7.046;2022-12-08T11:16:43;2.70;99.90
5796;DHT22;2924;51.458;7.046;2022-12-08T11:19:14;2.70;99.90
5796;DHT22;2924;51.458;7.046;2022-12-08T11:21:40;2.70;99.90
5796;DHT22;2924;51.458;7.046;2022-12-08T11:24:26;2.80;99.90
5796;DHT22;2924;51.458;7.046;2022-12-08T11:26:58;2.80;99.90
5796;DHT22;2924;51.458;7.046;2022-12-08T11:29:25;2.80;99.90
5796;DHT22;2924;51.458;7.046;2022-12-08T11:31:56;2.90;99.90
5796;DHT22;2924;51.458;7.046;2022-12-08T11:34:45;2.80;99.90
5796;DHT22;2924;51.458;7.046;2022-12-08T11:39:54;2.90;99.90
5796;DHT22;2924;51.458;7.046;2022-12-08T11:42:25;2.90;99.90
5796;DHT22;2924;51.458;7.046;2022-12-08T11:44:58;3.00;99.90
5796;DHT22;2924;51.458;7.046;2022-12-08T11:47:27;3.00;99.90
5796;DHT22;2924;51.458;7.046;2022-12-08T11:50:10;3.00;99.90
5796;DHT22;2924;51.458;7.046;2022-12-08T11:52:49;3.00;99.90
5796;DHT22;2924;51.458;7.046;2022-12-08T11:55:22;3.00;99.90
5796;DHT22;2924;51.458;7.046;2022-12-08T11:57:49;3.00;99.90
5796;DHT22;2924;51.458;7.046;2022-12-08T12:00:16;3.00;99.90
5796;DHT22;2924;51.458;7.046;2022-12-08T12:02:52;2.90;99.90
5796;DHT22;2924;51.458;7.046;2022-12-08T12:08:40;2.90;99.90
5796;DHT22;2924;51.458;7.046;2022-12-08T12:11:39;2.80;99.90
5796;DHT22;2924;51.458;7.046;2022-12-08T12:20:30;2.70;99.90
5796;DHT22;2924;51.458;7.046;2022-12-08T12:23:03;2.80;99.90
5796;DHT22;2924;51.458;7.046;2022-12-08T12:25:31;2.80;99.90
5796;DHT22;2924;51.458;7.046;2022-12-08T12:28:02;2.80;99.90
5796;DHT22;2924;51.458;7.046;2022-12-08T12:31:20;2.70;99.90
5796;DHT22;2924;51.458;7.046;2022-12-08T12:33:21;2.60;99.90
5796;DHT22;2924;51.458;7.046;2022-12-08T12:35:47;2.50;99.90
5796;DHT22;2924;51.458;7.046;2022-12-08T12:38:32;2.40;99.90
5796;DHT22;2924;51.458;7.046;2022-12-08T12:41:28;2.30;99.90
5796;DHT22;2924;51.458;7.046;2022-12-08T12:52:48;2.20;99.90
5796;DHT22;2924;51.458;7.046;2022-12-08T13:07:33;2.10;99.90
5796;DHT22;2924;51.458;7.046;2022-12-08T13:12:39;2.20;99.90
5796;DHT22;2924;51.458;7.046;2022-12-08T13:15:06;2.20;99.90
5796;DHT22;2924;51.458;7.046;2022-12-08T13:17:43;2.30;99.90
5796;DHT22;2924;51.458;7.046;2022-12-08T13:20:19;2.30;99.90
5796;DHT22;2924;51.458;7.046;2022-12-08T13:30:44;2.50;99.90
5796;DHT22;2924;51.458;7.046;2022-12-08T13:33:15;2.50;99.90
5796;DHT22;2924;51.458;7.046;2022-12-08T13:35:46;2.50;99.90
5796;DHT22;2924;51.458;7.046;2022-12-08T13:38:18;2.50;99.90
5796;DHT22;2924;51.458;7.046;2022-12-08T13:40:46;2.50;99.90
5796;DHT22;2924;51.458;7.046;2022-12-08T13:43:34;2.50;99.90
5796;DHT22;2924;51.458;7.046;2022-12-08T13:46:00;2.50;99.90
5796;DHT22;2924;51.458;7.046;2022-12-08T13:48:43;2.40;99.90
5796;DHT22;2924;51.458;7.046;2022-12-08T13:51:17;2.30;99.90
5796;DHT22;2924;51.458;7.046;2022-12-08T13:54:03;2.30;99.90
5796;DHT22;2924;51.458;7.046;2022-12-08T13:56:40;2.30;99.90
5796;DHT22;2924;51.458;7.046;2022-12-08T14:01:45;2.20;99.90
5796;DHT22;2924;51.458;7.046;2022-12-08T14:04:17;2.30;99.90
5796;DHT22;2924;51.458;7.046;2022-12-08T14:06:47;2.20;99.90
5796;DHT22;2924;51.458;7.046;2022-12-08T14:09:26;2.20;99.90
5796;DHT22;2924;51.458;7.046;2022-12-08T14:12:18;2.20;99.90
5796;DHT22;2924;51.458;7.046;2022-12-08T14:14:45;2.10;99.90
5796;DHT22;2924;51.458;7.046;2022-12-08T14:17:14;2.10;99.90
5796;DHT22;2924;51.458;7.046;2022-12-08T15:22:35;2.00;99.90
5796;DHT22;2924;51.458;7.046;2022-12-08T15:25:01;2.10;99.90
5796;DHT22;2924;51.458;7.046;2022-12-08T15:27:26;2.00;99.90
5796;DHT22;2924;51.458;7.046;2022-12-08T15:29:52;2.00;99.90
5796;DHT22;2924;51.458;7.046;2022-12-08T15:32:20;2.00;99.90
5796;DHT22;2924;51.458;7.046;2022-12-08T15:34:46;2.00;99.90
5796;DHT22;2924;51.458;7.046;2022-12-08T15:39:45;2.10;99.90
5796;DHT22;2924;51.458;7.046;2022-12-08T15:42:11;2.10;99.90
5796;DHT22;2924;51.458;7.046;2022-12-08T15:44:37;2.10;99.90
5796;DHT22;2924;51.458;7.046;2022-12-08T15:47:03;2.10;99.90
5796;DHT22;2924;51.458;7.046;2022-12-08T15:49:29;2.10;99.90
5796;DHT22;2924;51.458;7.046;2022-12-08T15:51:55;2.10;99.90
5796;DHT22;2924;51.458;7.046;2022-12-08T15:54:21;2.10;99.90
5796;DHT22;2924;51.458;7.046;2022-12-08T15:56:50;2.10;99.90
5796;DHT22;2924;51.458;7.046;2022-12-08T15:59:19;2.20;99.90
5796;DHT22;2924;51.458;7.046;2022-12-08T16:01:45;2.20;99.90
5796;DHT22;2924;51.458;7.046;2022-12-08T16:04:17;2.20;99.90
5796;DHT22;2924;51.458;7.046;2022-12-08T16:06:49;2.10;99.90
5796;DHT22;2924;51.458;7.046;2022-12-08T16:11:46;2.20;99.90
5796;DHT22;2924;51.458;7.046;2022-12-08T16:14:30;2.20;99.90
5796;DHT22;2924;51.458;7.046;2022-12-08T16:16:56;2.30;99.90
5796;DHT22;2924;51.458;7.046;2022-12-08T16:19:22;2.40;99.90
5796;DHT22;2924;51.458;7.046;2022-12-08T16:21:48;2.40;99.90
5796;DHT22;2924;51.458;7.046;2022-12-08T16:24:13;2.40;99.90
5796;DHT22;2924;51.458;7.046;2022-12-08T16:26:39;2.30;99.90
5796;DHT22;2924;51.458;7.046;2022-12-08T16:29:05;2.40;99.90
5796;DHT22;2924;51.458;7.046;2022-12-08T16:31:31;2.40;99.90
5796;DHT22;2924;51.458;7.046;2022-12-08T16:33:57;2.40;99.90
5796;DHT22;2924;51.458;7.046;2022-12-08T16:36:22;2.50;99.90
5796;DHT22;2924;51.458;7.046;2022-12-08T16:38:48;2.50;99.90
5796;DHT22;2924;51.458;7.046;2022-12-08T16:41:14;2.50;99.90
5796;DHT22;2924;51.458;7.046;2022-12-08T16:44:04;2.50;99.90
5796;DHT22;2924;51.458;7.046;2022-12-08T16:46:30;2.50;99.90
5796;DHT22;2924;51.458;7.046;2022-12-08T16:48:56;2.40;99.90
5796;DHT22;2924;51.458;7.046;2022-12-08T16:51:23;2.40;99.90
5796;DHT22;2924;51.458;7.046;2022-12-08T16:53:50;2.40;99.90
5796;DHT22;2924;51.458;7.046;2022-12-08T16:56:18;2.40;99.90
5796;DHT22;2924;51.458;7.046;2022-12-08T16:58:44;2.40;99.90
5796;DHT22;2924;51.458;7.046;2022-12-08T17:01:16;2.40;99.90
5796;DHT22;2924;51.458;7.046;2022-12-08T17:03:43;2.40;99.90
5796;DHT22;2924;51.458;7.046;2022-12-08T17:06:14;2.40;99.90
5796;DHT22;2924;51.458;7.046;2022-12-08T17:08:41;2.40;99.90
5796;DHT22;2924;51.458;7.046;2022-12-08T17:11:08;2.40;99.90
5796;DHT22;2924;51.458;7.046;2022-12-08T17:13:38;2.50;99.90
5796;DHT22;2924;51.458;7.046;2022-12-08T17:16:13;2.40;99.90
5796;DHT22;2924;51.458;7.046;2022-12-08T17:18:40;2.40;99.90
5796;DHT22;2924;51.458;7.046;2022-12-08T17:21:10;2.50;99.90
5796;DHT22;2924;51.458;7.046;2022-12-08T17:23:40;2.40;99.90
5796;DHT22;2924;51.458;7.046;2022-12-08T17:26:07;2.40;99.90
5796;DHT22;2924;51.458;7.046;2022-12-08T17:28:33;2.40;99.90
5796;DHT22;2924;51.458;7.046;2022-12-08T17:30:58;2.40;99.90
5796;DHT22;2924;51.458;7.046;2022-12-08T17:33:25;2.40;99.90
5796;DHT22;2924;51.458;7.046;2022-12-08T17:35:52;2.40;99.90
5796;DHT22;2924;51.458;7.046;2022-12-08T17:38:20;2.40;99.90
5796;DHT22;2924;51.458;7.046;2022-12-08T17:40:46;2.40;99.90
5796;DHT22;2924;51.458;7.046;2022-12-08T17:43:13;2.40;99.90
5796;DHT22;2924;51.458;7.046;2022-12-08T17:45:44;2.40;99.90
5796;DHT22;2924;51.458;7.046;2022-12-08T17:48:10;2.40;99.90
5796;DHT22;2924;51.458;7.046;2022-12-08T17:50:43;2.40;99.90
5796;DHT22;2924;51.458;7.046;2022-12-08T17:53:09;2.40;99.90
5796;DHT22;2924;51.458;7.046;2022-12-08T17:55:36;2.40;99.90
5796;DHT22;2924;51.458;7.046;2022-12-08T17:58:02;2.40;99.90
5796;DHT22;2924;51.458;7.046;2022-12-08T18:00:28;2.40;99.90
5796;DHT22;2924;51.458;7.046;2022-12-08T18:02:54;2.40;99.90
5796;DHT22;2924;51.458;7.046;2022-12-08T18:05:21;2.40;99.90
5796;DHT22;2924;51.458;7.046;2022-12-08T18:07:46;2.40;99.90
5796;DHT22;2924;51.458;7.046;2022-12-08T18:10:12;2.40;99.90
5796;DHT22;2924;51.458;7.046;2022-12-08T18:12:38;2.40;99.90
5796;DHT22;2924;51.458;7.046;2022-12-08T18:15:07;2.40;99.90
5796;DHT22;2924;51.458;7.046;2022-12-08T18:17:33;2.40;99.90
5796;DHT22;2924;51.458;7.046;2022-12-08T18:19:59;2.40;99.90
5796;DHT22;2924;51.458;7.046;2022-12-08T18:22:24;2.30;99.90
5796;DHT22;2924;51.458;7.046;2022-12-08T18:24:51;2.40;99.90
5796;DHT22;2924;51.458;7.046;2022-12-08T18:27:17;2.30;99.90
5796;DHT22;2924;51.458;7.046;2022-12-08T18:29:42;2.40;99.90
5796;DHT22;2924;51.458;7.046;2022-12-08T18:32:08;2.30;99.90
5796;DHT22;2924;51.458;7.046;2022-12-08T18:34:34;2.30;99.90
5796;DHT22;2924;51.458;7.046;2022-12-08T18:37:00;2.30;99.90
5796;DHT22;2924;51.458;7.046;2022-12-08T18:39:28;2.20;99.90
5796;DHT22;2924;51.458;7.046;2022-12-08T18:41:55;2.20;99.90
5796;DHT22;2924;51.458;7.046;2022-12-08T18:44:20;2.10;99.90
5796;DHT22;2924;51.458;7.046;2022-12-08T18:46:46;2.10;99.90
5796;DHT22;2924;51.458;7.046;2022-12-08T18:49:14;2.10;99.90
5796;DHT22;2924;51.458;7.046;2022-12-08T18:51:41;2.20;99.90
5796;DHT22;2924;51.458;7.046;2022-12-08T18:54:07;2.20;99.90
5796;DHT22;2924;51.458;7.046;2022-12-08T18:56:34;2.20;99.90
5796;DHT22;2924;51.458;7.046;2022-12-08T18:59:05;2.10;99.90
5796;DHT22;2924;51.458;7.046;2022-12-08T19:01:32;2.10;99.90
5796;DHT22;2924;51.458;7.046;2022-12-08T19:03:59;2.00;99.90
5796;DHT22;2924;51.458;7.046;2022-12-08T19:06:25;1.90;99.90
5796;DHT22;2924;51.458;7.046;2022-12-08T19:08:51;1.90;99.90
5796;DHT22;2924;51.458;7.046;2022-12-08T19:11:24;1.80;99.90
5796;DHT22;2924;51.458;7.046;2022-12-08T19:13:51;1.80;99.90
5796;DHT22;2924;51.458;7.046;2022-12-08T19:16:17;1.80;99.90
5796;DHT22;2924;51.458;7.046;2022-12-08T19:18:43;1.80;99.90
5796;DHT22;2924;51.458;7.046;2022-12-08T19:21:09;1.90;99.90
5796;DHT22;2924;51.458;7.046;2022-12-08T19:23:36;1.90;99.90